Time;durP1;ratioP1;P1;durP2;ratioP2;P2;SDS_P1;SDS_P2;PMS_P1;PMS_P2;Temp;Humidity;BMP_temperature;BMP_pressure;BME280_temperature;BME280_humidity;BME280_pressure;Samples;Min_cycle;Max_cycle;Signal;HPM_P1;HPM_P2
2020/12/14 00:00:29;;;;;;;19.08;13.57;;;;;;;4.47;72.24;101323.88;5109133;28;20047;-65
2020/12/14 00:02:58;;;;;;;25.23;14.27;;;;;;;4.45;71.92;101328.25;5108920;28;20039;-64
2020/12/14 00:05:25;;;;;;;22.73;13.48;;;;;;;4.42;72.07;101321.38;5109184;28;20454;-64
2020/12/14 00:07:51;;;;;;;20.27;14.15;;;;;;;4.42;71.85;101326.56;5109091;28;20047;-65
2020/12/14 00:10:17;;;;;;;25.25;14.05;;;;;;;4.41;71.79;101320.50;5118272;28;20105;-65
2020/12/14 00:12:43;;;;;;;19.38;14.00;;;;;;;4.43;71.82;101324.81;5129805;27;20120;-65
2020/12/14 00:15:10;;;;;;;21.23;13.65;;;;;;;4.37;71.69;101318.88;5129430;28;20092;-65
2020/12/14 00:17:36;;;;;;;19.92;13.65;;;;;;;4.38;71.77;101324.91;5129431;27;20039;-64
2020/12/14 00:20:03;;;;;;;19.05;12.85;;;;;;;4.35;71.57;101338.81;5129357;27;20043;-64
2020/12/14 00:22:33;;;;;;;17.63;12.90;;;;;;;4.31;71.41;101336.34;5114017;27;20040;-64
2020/12/14 00:25:00;;;;;;;21.30;13.00;;;;;;;4.24;71.05;101336.47;5121823;28;20047;-66
2020/12/14 00:27:27;;;;;;;23.50;12.80;;;;;;;4.20;71.24;101340.03;5121706;27;20051;-65
2020/12/14 00:29:53;;;;;;;19.55;12.50;;;;;;;4.16;71.20;101340.94;5124297;28;20411;-64
2020/12/14 00:32:20;;;;;;;23.15;11.88;;;;;;;4.12;71.02;101341.91;5108637;28;20050;-63
2020/12/14 00:34:46;;;;;;;16.70;11.73;;;;;;;4.08;71.07;101335.91;5123512;28;20039;-65
2020/12/14 00:37:12;;;;;;;14.23;11.50;;;;;;;4.06;70.78;101335.09;5100932;28;20403;-63
2020/12/14 00:39:38;;;;;;;16.75;12.45;;;;;;;4.08;70.93;101333.31;5129437;27;20540;-63
2020/12/14 00:42:04;;;;;;;20.05;13.05;;;;;;;4.09;70.73;101329.00;5131659;27;20047;-63
2020/12/14 00:44:30;;;;;;;16.20;12.25;;;;;;;4.11;70.88;101328.97;5133445;27;20043;-64
2020/12/14 00:46:56;;;;;;;17.90;11.77;;;;;;;4.12;70.67;101326.31;5133590;27;20096;-65
2020/12/14 00:49:23;;;;;;;25.30;13.43;;;;;;;4.13;70.57;101327.19;5133140;27;20487;-62
2020/12/14 00:51:49;;;;;;;18.83;12.25;;;;;;;4.12;70.50;101330.66;5132783;27;20043;-62
2020/12/14 00:54:16;;;;;;;21.35;13.45;;;;;;;4.11;70.14;101337.59;5133114;27;20095;-62
2020/12/14 00:56:42;;;;;;;16.27;12.27;;;;;;;4.11;70.55;101342.78;5132979;27;20047;-65
2020/12/14 00:59:08;;;;;;;18.50;12.13;;;;;;;4.11;70.10;101344.53;5132850;27;20096;-63
2020/12/14 01:01:35;;;;;;;17.92;12.15;;;;;;;4.10;70.21;101354.06;5126357;27;20113;-63
2020/12/14 01:04:01;;;;;;;15.80;12.48;;;;;;;4.12;70.13;101356.66;5129151;27;20088;-65
2020/12/14 01:06:27;;;;;;;13.88;11.80;;;;;;;4.11;69.93;101371.34;5133433;27;20067;-65
2020/12/14 01:08:53;;;;;;;12.60;11.15;;;;;;;4.08;69.96;101363.63;5132712;27;20072;-64
2020/12/14 01:11:27;;;;;;;14.73;12.38;;;;;;;4.07;70.06;101367.13;5132661;27;20051;-65
2020/12/14 01:13:54;;;;;;;14.57;11.98;;;;;;;4.05;70.03;101376.66;5132863;27;20051;-64
2020/12/14 01:16:21;;;;;;;16.27;12.75;;;;;;;3.98;69.98;101369.91;5118414;27;20063;-65
2020/12/14 01:18:47;;;;;;;15.75;12.23;;;;;;;3.92;70.15;101371.72;5132701;27;20111;-65
2020/12/14 01:21:13;;;;;;;23.33;13.43;;;;;;;3.87;70.17;101373.56;5132452;27;20043;-65
2020/12/14 01:23:39;;;;;;;17.25;13.90;;;;;;;3.86;70.56;101377.03;5135041;27;20502;-65
2020/12/14 01:26:05;;;;;;;18.15;13.07;;;;;;;3.90;70.63;101372.63;5135646;27;20540;-62
2020/12/14 01:28:31;;;;;;;17.05;13.68;;;;;;;3.90;70.65;101378.69;5135939;27;20457;-65
2020/12/14 01:30:58;;;;;;;19.33;13.70;;;;;;;3.91;70.58;101370.00;5135765;27;20491;-65
2020/12/14 01:33:24;;;;;;;16.48;13.05;;;;;;;3.93;70.51;101364.78;5135388;27;20494;-65
2020/12/14 01:35:50;;;;;;;17.17;13.10;;;;;;;3.91;70.75;101354.44;5134766;27;20043;-65
2020/12/14 01:38:17;;;;;;;15.95;11.77;;;;;;;3.87;70.66;101354.50;5135663;27;20075;-66
2020/12/14 01:40:43;;;;;;;17.50;12.10;;;;;;;3.87;70.40;101355.38;5135697;27;20039;-66
2020/12/14 01:43:09;;;;;;;17.63;12.43;;;;;;;3.87;70.30;101354.50;5135475;27;20051;-64
2020/12/14 01:45:35;;;;;;;15.57;13.07;;;;;;;3.86;70.40;101351.06;5135466;27;20035;-64
2020/12/14 01:48:04;;;;;;;16.63;13.02;;;;;;;3.87;70.18;101344.13;5135396;27;20066;-65
2020/12/14 01:50:30;;;;;;;16.58;12.77;;;;;;;3.90;70.04;101336.28;5135331;27;20088;-64
2020/12/14 01:53:01;;;;;;;15.65;13.38;;;;;;;3.91;69.85;101358.75;5125067;27;20044;-64
2020/12/14 01:55:36;;;;;;;14.02;12.50;;;;;;;3.88;69.88;101356.22;5131706;27;20046;-62
2020/12/14 01:58:03;;;;;;;15.00;12.00;;;;;;;3.87;69.64;101360.56;5135170;27;20043;-64
2020/12/14 02:00:29;;;;;;;15.30;12.82;;;;;;;3.85;69.54;101362.34;5135037;27;20043;-62
2020/12/14 02:02:55;;;;;;;15.05;11.82;;;;;;;3.84;69.53;101363.22;5135041;27;20088;-64
2020/12/14 02:05:21;;;;;;;16.08;11.50;;;;;;;3.80;69.46;101358.13;5135083;27;20051;-65
2020/12/14 02:07:47;;;;;;;13.57;11.93;;;;;;;3.75;69.49;101358.19;5135064;27;20047;-65
2020/12/14 02:10:13;;;;;;;16.75;13.30;;;;;;;3.71;69.62;101360.00;5134782;27;20574;-65
2020/12/14 02:12:40;;;;;;;14.65;12.30;;;;;;;3.70;69.81;101365.22;5135044;27;20046;-63
2020/12/14 02:15:06;;;;;;;12.25;11.05;;;;;;;3.64;69.94;101358.38;5134858;27;20112;-64
2020/12/14 02:17:33;;;;;;;12.63;11.30;;;;;;;3.65;69.81;101360.09;5134651;27;20050;-65
2020/12/14 02:19:59;;;;;;;12.88;11.30;;;;;;;3.67;69.77;101357.47;5134540;27;20051;-65
2020/12/14 02:22:27;;;;;;;14.77;12.23;;;;;;;3.70;69.82;101365.22;5134993;27;20170;-62
2020/12/14 02:25:00;;;;;;;14.35;12.35;;;;;;;3.73;69.84;101366.03;5134629;27;20062;-64
2020/12/14 02:27:29;;;;;;;14.52;11.88;;;;;;;3.75;69.71;101366.81;5133733;27;20457;-65
2020/12/14 02:29:56;;;;;;;15.05;11.82;;;;;;;3.76;69.53;101373.72;5134490;27;20039;-65
2020/12/14 02:32:25;;;;;;;13.35;11.38;;;;;;;3.76;69.47;101373.72;5134384;27;20039;-65
2020/12/14 02:34:51;;;;;;;15.63;12.05;;;;;;;3.74;69.50;101366.88;5134413;27;20055;-65
2020/12/14 02:37:32;;;;;;;21.83;11.98;;;;;;;3.70;69.31;101370.41;5127810;27;20092;-66
2020/12/14 02:40:00;;;;;;;14.88;11.27;;;;;;;3.65;69.58;101380.84;5114533;27;20496;-62
2020/12/14 02:42:27;;;;;;;19.58;11.15;;;;;;;3.56;69.79;101381.88;5133941;27;20051;-65
2020/12/14 02:44:53;;;;;;;14.02;10.75;;;;;;;3.56;69.87;101394.00;5134284;27;20039;-64
2020/12/14 02:47:20;;;;;;;13.35;10.57;;;;;;;3.55;69.83;101392.28;5134154;27;20043;-65
2020/12/14 02:49:47;;;;;;;19.92;10.98;;;;;;;3.46;70.10;101372.53;5134292;27;20411;-63
2020/12/14 02:52:14;;;;;;;13.27;10.98;;;;;;;3.48;69.97;101375.09;5133933;27;20043;-62
2020/12/14 02:54:42;;;;;;;15.65;10.30;;;;;;;3.51;69.92;101380.25;5134216;27;20484;-66
2020/12/14 02:57:09;;;;;;;11.63;10.27;;;;;;;3.48;69.74;101385.47;5133888;27;20084;-65
2020/12/14 02:59:35;;;;;;;12.73;10.15;;;;;;;3.48;70.13;101381.16;5132600;27;20043;-65
2020/12/14 03:02:01;;;;;;;12.77;10.27;;;;;;;3.47;69.85;101386.38;5133622;27;20055;-64
2020/12/14 03:04:27;;;;;;;11.57;10.32;;;;;;;3.42;70.15;101394.22;5133270;27;20043;-65
2020/12/14 03:06:53;;;;;;;11.13;9.30;;;;;;;3.39;70.00;101391.66;5133721;27;20499;-64
2020/12/14 03:09:21;;;;;;;10.48;8.63;;;;;;;3.40;70.17;101393.38;5133862;27;20096;-65
2020/12/14 03:11:49;;;;;;;16.33;9.73;;;;;;;3.39;70.00;101399.44;5134071;27;20484;-65
2020/12/14 03:14:16;;;;;;;17.85;8.77;;;;;;;3.38;69.93;101401.19;5133810;27;20050;-65
2020/12/14 03:16:46;;;;;;;16.83;9.93;;;;;;;3.32;70.16;101405.63;5133419;27;20043;-65
2020/12/14 03:19:13;;;;;;;12.88;9.15;;;;;;;3.27;70.36;101405.69;5133760;27;20656;-64
2020/12/14 03:21:39;;;;;;;17.40;10.38;;;;;;;3.31;70.35;101398.72;5129350;27;20376;-65
2020/12/14 03:24:06;;;;;;;12.38;8.85;;;;;;;3.35;70.59;101395.19;5123354;27;20068;-65
2020/12/14 03:26:32;;;;;;;12.68;8.95;;;;;;;3.39;70.43;101396.84;5133457;27;20043;-65
2020/12/14 03:28:59;;;;;;;14.40;9.35;;;;;;;3.42;70.47;101405.44;5133670;27;20066;-65
2020/12/14 03:31:26;;;;;;;11.15;8.88;;;;;;;3.42;70.17;101405.44;5133635;27;20119;-65
2020/12/14 03:33:56;;;;;;;11.80;9.27;;;;;;;3.43;70.28;101419.28;5133414;27;20079;-64
2020/12/14 03:36:23;;;;;;;14.82;9.27;;;;;;;3.40;70.28;101420.19;5133549;27;20111;-64
2020/12/14 03:38:50;;;;;;;10.25;8.82;;;;;;;3.37;70.38;101415.03;5133183;27;20147;-64
2020/12/14 03:41:17;;;;;;;15.30;9.85;;;;;;;3.38;70.49;101415.91;5133121;27;20055;-64
2020/12/14 03:43:43;;;;;;;17.80;10.85;;;;;;;3.39;70.65;101421.06;5133379;27;20043;-63
2020/12/14 03:46:20;;;;;;;15.50;10.13;;;;;;;3.42;70.67;101421.00;5133173;27;20051;-64
2020/12/14 03:48:47;;;;;;;12.98;9.82;;;;;;;3.46;70.74;101411.44;5133177;27;20080;-64
2020/12/14 03:51:14;;;;;;;11.93;10.07;;;;;;;3.50;70.53;101412.25;5133118;27;20050;-65
2020/12/14 03:53:43;;;;;;;14.57;10.15;;;;;;;3.48;70.62;101414.88;5133119;27;20086;-65
2020/12/14 03:56:09;;;;;;;11.32;9.65;;;;;;;3.46;70.72;101406.25;5133321;27;20099;-65
2020/12/14 03:58:35;;;;;;;11.60;8.95;;;;;;;3.46;70.75;101415.78;5133126;27;20046;-64
2020/12/14 04:01:02;;;;;;;14.75;9.82;;;;;;;3.45;70.58;101427.03;5132821;27;20047;-65
2020/12/14 04:03:29;;;;;;;11.50;8.40;;;;;;;3.41;70.79;101421.03;5116272;27;20044;-65
2020/12/14 04:05:55;;;;;;;15.55;8.55;;;;;;;3.38;71.17;101423.69;5127241;28;20154;-65
2020/12/14 04:08:21;;;;;;;22.52;8.93;;;;;;;3.36;71.24;101425.44;5129601;27;20043;-65
2020/12/14 04:10:48;;;;;;;13.25;8.25;;;;;;;3.34;71.08;101422.88;5129694;27;20058;-65
2020/12/14 04:13:14;;;;;;;17.00;9.13;;;;;;;3.31;71.02;101427.25;5129638;27;20043;-64
2020/12/14 04:15:40;;;;;;;9.30;7.82;;;;;;;3.28;71.22;101428.16;5131613;27;20171;-64
2020/12/14 04:18:06;;;;;;;10.45;7.93;;;;;;;3.27;71.04;101439.41;5133775;27;20453;-65
2020/12/14 04:20:33;;;;;;;23.80;8.27;;;;;;;3.26;70.97;101425.59;5133745;27;20051;-65
2020/12/14 04:22:59;;;;;;;11.70;8.07;;;;;;;3.25;71.25;101436.84;5133424;27;20047;-64
2020/12/14 04:25:25;;;;;;;15.43;8.80;;;;;;;3.25;71.29;101439.44;5133793;27;20096;-65
2020/12/14 04:27:51;;;;;;;23.55;9.20;;;;;;;3.24;71.21;101440.31;5133627;27;20050;-65
2020/12/14 04:30:17;;;;;;;10.68;9.25;;;;;;;3.24;71.33;101439.47;5133385;27;20038;-65
2020/12/14 04:32:44;;;;;;;14.85;8.77;;;;;;;3.19;71.41;101449.91;5133806;27;20062;-62
2020/12/14 04:35:10;;;;;;;17.08;9.77;;;;;;;3.17;71.43;101456.00;5133468;27;20043;-65
2020/12/14 04:37:36;;;;;;;15.27;9.48;;;;;;;3.14;71.48;101458.66;5133465;27;20483;-65
2020/12/14 04:40:04;;;;;;;14.98;11.57;;;;;;;3.16;71.73;101462.06;5133370;27;20083;-64
2020/12/14 04:42:31;;;;;;;12.40;9.93;;;;;;;3.15;71.80;101465.53;5133220;27;20055;-62
2020/12/14 04:44:57;;;;;;;22.95;10.85;;;;;;;3.18;71.84;101463.75;5133137;27;20043;-64
2020/12/14 04:47:27;;;;;;;13.52;10.18;;;;;;;3.18;71.73;101466.34;5133663;27;20039;-65
2020/12/14 04:49:54;;;;;;;13.98;10.82;;;;;;;3.24;71.59;101470.59;5133201;27;20449;-64
2020/12/14 04:52:22;;;;;;;13.43;10.73;;;;;;;3.26;71.54;101468.81;5133074;27;20479;-62
2020/12/14 04:54:49;;;;;;;13.45;10.00;;;;;;;3.24;71.51;101470.59;5133497;27;20139;-65
2020/12/14 04:57:19;;;;;;;15.15;10.13;;;;;;;3.27;71.37;101475.72;5132931;27;20046;-65
2020/12/14 04:59:45;;;;;;;15.10;9.88;;;;;;;3.27;71.50;101473.97;5133306;27;20047;-62
2020/12/14 05:02:11;;;;;;;19.60;9.85;;;;;;;3.26;71.46;101477.47;5132817;27;20044;-64
2020/12/14 05:04:38;;;;;;;17.35;9.07;;;;;;;3.24;71.36;101481.81;5133055;27;20491;-65
2020/12/14 05:07:06;;;;;;;12.05;10.20;;;;;;;3.18;71.44;101481.91;5132836;27;20120;-65
2020/12/14 05:09:32;;;;;;;14.07;9.50;;;;;;;3.18;71.44;101481.91;5133015;27;20043;-62
2020/12/14 05:11:59;;;;;;;12.32;8.85;;;;;;;3.18;71.52;101481.91;5132929;27;20047;-65
2020/12/14 05:14:27;;;;;;;10.27;8.68;;;;;;;3.12;71.27;101486.31;5132756;27;20080;-65
2020/12/14 05:16:54;;;;;;;10.30;8.90;;;;;;;3.09;71.45;101495.00;5132698;27;20043;-64
2020/12/14 05:19:21;;;;;;;12.45;8.93;;;;;;;3.04;71.33;101492.47;5132682;27;20448;-64
2020/12/14 05:21:54;;;;;;;14.60;10.30;;;;;;;3.05;71.28;101503.72;5132643;27;20047;-65
2020/12/14 05:24:28;;;;;;;16.20;11.32;;;;;;;3.04;71.21;101502.84;5132663;27;20043;-64
2020/12/14 05:26:56;;;;;;;20.73;10.35;;;;;;;3.02;71.17;101507.19;5131291;27;20478;-65
2020/12/14 05:29:29;;;;;;;15.60;10.18;;;;;;;3.03;71.30;101508.03;5132587;27;20448;-63
2020/12/14 05:32:06;;;;;;;15.23;9.60;;;;;;;3.07;71.33;101509.72;5131964;27;20077;-65
2020/12/14 05:34:40;;;;;;;11.45;8.77;;;;;;;3.09;71.16;101516.59;5132381;27;20556;-65
2020/12/14 05:37:11;;;;;;;11.77;9.15;;;;;;;3.12;71.05;101514.84;5132121;27;20051;-65
2020/12/14 05:39:39;;;;;;;13.88;9.32;;;;;;;3.09;71.12;101513.16;5132576;27;20043;-65
2020/12/14 05:42:17;;;;;;;13.05;9.55;;;;;;;3.06;71.16;101510.59;5127020;27;20093;-62
2020/12/14 05:44:50;;;;;;;11.93;9.80;;;;;;;3.06;71.22;101521.84;5124009;27;20047;-63
2020/12/14 05:47:28;;;;;;;12.63;9.50;;;;;;;3.09;71.22;101518.34;5131553;27;20078;-63
2020/12/14 05:49:59;;;;;;;12.90;9.18;;;;;;;3.08;71.36;101529.59;5132487;27;20126;-64
2020/12/14 05:52:33;;;;;;;13.48;9.35;;;;;;;3.10;71.40;101525.25;5099361;27;20052;-60
2020/12/14 05:55:01;;;;;;;11.73;8.80;;;;;;;3.09;71.21;101526.13;5111244;28;20120;-63
2020/12/14 05:57:30;;;;;;;17.23;10.23;;;;;;;3.07;71.30;101523.56;5111303;28;20120;-63
2020/12/14 06:00:09;;;;;;;13.30;9.48;;;;;;;3.09;71.58;101524.38;5110965;28;20043;-66
2020/12/14 06:02:36;;;;;;;10.75;8.95;;;;;;;3.06;71.47;101523.53;5107107;28;20498;-63
2020/12/14 06:05:07;;;;;;;13.85;9.40;;;;;;;3.04;71.37;101528.75;5111017;28;20073;-65
2020/12/14 06:07:34;;;;;;;17.25;10.48;;;;;;;3.00;71.50;101521.91;5111287;28;20062;-66
2020/12/14 06:10:15;;;;;;;14.75;10.25;;;;;;;3.03;71.70;101528.78;5116003;27;20569;-67
2020/12/14 06:12:47;;;;;;;11.32;8.65;;;;;;;3.07;71.45;101523.56;5131720;27;20126;-66
2020/12/14 06:15:16;;;;;;;14.52;9.55;;;;;;;3.10;71.54;101533.88;5124144;27;20100;-67
2020/12/14 06:17:45;;;;;;;10.50;9.20;;;;;;;3.13;71.42;101535.56;5113123;27;20044;-63
2020/12/14 06:20:17;;;;;;;16.38;9.50;;;;;;;3.14;71.23;101545.06;5110643;28;20130;-62
2020/12/14 06:22:46;;;;;;;10.63;9.38;;;;;;;3.13;71.01;101543.34;5110886;28;20039;-65
2020/12/14 06:25:14;;;;;;;12.75;8.88;;;;;;;3.15;71.11;101548.50;5110471;28;20441;-68
2020/12/14 06:27:40;;;;;;;12.98;8.95;;;;;;;3.14;71.04;101541.63;5107239;28;20433;-65
2020/12/14 06:30:28;;;;;;;21.63;10.40;;;;;;;3.11;70.81;101537.31;5110569;28;20081;-64
2020/12/14 06:33:05;;;;;;;12.98;9.55;;;;;;;3.12;70.71;101538.19;5103044;28;20109;-65
2020/12/14 06:35:51;;;;;;;13.50;9.27;;;;;;;3.14;70.97;101539.03;5110395;28;20096;-62
2020/12/14 06:38:37;;;;;;;;;;;;;;;3.15;71.03;101545.91;5111187;28;20055;-62
2020/12/14 06:41:10;;;;;;;10.73;9.38;;;;;;;3.17;71.06;101557.97;5110229;28;19980;-62
2020/12/14 06:43:36;;;;;;;14.02;9.40;;;;;;;3.17;71.11;101559.72;5110711;28;20779;-65
2020/12/14 06:46:03;;;;;;;13.25;9.95;;;;;;;3.17;70.97;101562.31;5109771;28;20571;-66
2020/12/14 06:48:44;;;;;;;16.67;10.52;;;;;;;3.17;71.01;101549.34;5110264;28;20406;-68
2020/12/14 06:51:15;;;;;;;30.63;21.48;;;;;;;3.16;70.86;101558.00;5110316;28;20039;-67
2020/12/14 06:53:42;;;;;;;12.75;5.95;;;;;;;3.59;76.39;101565.22;5110169;28;20040;-69
2020/12/14 06:56:10;;;;;;;25.85;15.20;;;;;;;3.85;77.86;101571.78;5110064;28;20473;-74
2020/12/14 06:58:40;;;;;;;18.15;12.48;;;;;;;3.76;75.52;101571.03;5109771;28;20036;-75
2020/12/14 07:01:36;;;;;;;21.10;12.15;;;;;;;3.63;74.25;101573.81;5109624;28;20043;-69
2020/12/14 07:04:26;;;;;;;14.30;11.15;;;;;;;3.51;73.93;101585.25;5109630;28;20043;-80
2020/12/14 07:06:52;;;;;;;12.80;10.55;;;;;;;3.40;72.98;101582.78;5109097;28;20644;-68
2020/12/14 07:09:25;;;;;;;11.35;10.15;;;;;;;3.32;72.53;101590.66;5110099;27;20039;-74
2020/12/14 07:11:51;;;;;;;15.88;9.43;;;;;;;3.29;72.13;101593.31;5108699;27;20047;-74
2020/12/14 07:14:28;;;;;;;13.75;9.35;;;;;;;3.25;71.73;101596.78;5108971;28;20047;-75
2020/12/14 07:16:57;;;;;;;10.77;9.65;;;;;;;3.23;71.67;101595.97;5108204;28;20044;-79
2020/12/14 07:19:45;;;;;;;19.08;12.95;;;;;;;3.17;71.07;101591.69;5108843;28;20043;-79
2020/12/14 07:22:18;;;;;;;11.02;8.85;;;;;;;3.08;70.98;101594.41;5108865;28;20043;-78
2020/12/14 07:24:50;;;;;;;15.50;11.55;;;;;;;3.07;71.08;101597.88;5108527;28;20040;-79
2020/12/14 07:27:17;;;;;;;17.02;12.13;;;;;;;3.11;71.75;101609.91;5106237;28;20051;-78
2020/12/14 07:29:43;;;;;;;31.67;17.30;;;;;;;3.07;71.55;101614.31;5100721;28;20597;-67
2020/12/14 07:32:09;;;;;;;18.35;12.30;;;;;;;3.04;71.38;101616.06;5106832;28;20112;-77
2020/12/14 07:34:35;;;;;;;27.10;18.30;;;;;;;3.02;71.34;101610.91;5107779;28;20441;-65
2020/12/14 07:37:01;;;;;;;24.15;16.73;;;;;;;3.01;71.09;101616.97;5107813;28;20052;-75
2020/12/14 07:39:28;;;;;;;16.15;11.57;;;;;;;2.97;71.08;101627.38;5109404;28;20051;-77
2020/12/14 07:41:54;;;;;;;37.38;18.95;;;;;;;2.97;71.11;101625.66;5101343;28;20055;-75
2020/12/14 07:44:20;;;;;;;35.50;20.50;;;;;;;2.99;71.29;101628.22;5098148;28;20073;-76
2020/12/14 07:46:46;;;;;;;14.13;11.18;;;;;;;3.02;71.36;101633.38;5099883;28;20525;-75
2020/12/14 07:49:15;;;;;;;16.80;9.68;;;;;;;3.06;71.29;101635.94;5102467;28;20044;-75
2020/12/14 07:51:44;;;;;;;10.95;9.63;;;;;;;3.08;71.23;101638.50;5108398;28;20487;-74
2020/12/14 07:54:19;;;;;;;16.77;11.23;;;;;;;3.11;70.97;101633.25;5108049;28;20540;-68
2020/12/14 07:56:56;;;;;;;14.98;9.65;;;;;;;3.13;70.95;101639.31;5104656;28;20043;-76
2020/12/14 07:59:25;;;;;;;19.30;14.00;;;;;;;3.08;70.97;101638.50;5108934;28;20051;-75
2020/12/14 08:01:52;;;;;;;27.73;17.52;;;;;;;3.09;71.08;101638.47;5109015;28;20512;-75
2020/12/14 08:04:26;;;;;;;50.25;27.30;;;;;;;3.09;70.94;101651.44;5108840;28;20051;-76
2020/12/14 08:06:53;;;;;;;23.48;18.05;;;;;;;3.06;71.02;101643.72;5109823;28;20083;-70
2020/12/14 08:09:21;;;;;;;15.27;11.73;;;;;;;3.06;71.20;101646.28;5110133;28;20449;-75
2020/12/14 08:11:51;;;;;;;13.15;9.13;;;;;;;3.09;71.19;101659.22;5130745;27;20075;-77
2020/12/14 08:14:18;;;;;;;18.92;9.98;;;;;;;3.12;70.94;101660.06;5121292;27;20252;-76
2020/12/14 08:16:46;;;;;;;38.60;23.73;;;;;;;3.10;71.05;101666.13;5109376;28;20044;-73
2020/12/14 08:19:20;;;;;;;37.53;20.50;;;;;;;3.10;71.28;101666.13;5108347;28;20591;-76
2020/12/14 08:21:59;;;;;;;20.45;14.30;;;;;;;3.07;71.31;101671.34;5108815;28;20463;-79
2020/12/14 08:24:26;;;;;;;107.03;61.45;;;;;;;3.05;71.36;101670.50;5101417;28;20044;-67
2020/12/14 08:27:05;;;;;;;31.25;21.00;;;;;;;3.02;71.47;101680.03;5107545;28;20048;-76
2020/12/14 08:29:33;;;;;;;25.42;14.80;;;;;;;3.02;71.85;101691.28;5108506;28;20039;-67
2020/12/14 08:32:01;;;;;;;22.67;13.85;;;;;;;3.01;71.86;101696.47;5107981;28;20056;-77
2020/12/14 08:34:37;;;;;;;16.00;12.40;;;;;;;2.99;71.95;101703.41;5108396;28;20066;-70
2020/12/14 08:37:06;;;;;;;25.38;16.98;;;;;;;2.97;72.27;101705.16;5108216;28;20048;-78
2020/12/14 08:39:33;;;;;;;16.40;12.15;;;;;;;2.99;72.38;101711.19;5108721;28;20088;-79
2020/12/14 08:42:12;;;;;;;15.75;12.13;;;;;;;3.06;72.43;101705.94;5108041;28;20050;-79
2020/12/14 08:44:39;;;;;;;17.58;12.85;;;;;;;3.15;72.28;101706.72;5108224;28;20100;-74
2020/12/14 08:47:16;;;;;;;15.85;12.27;;;;;;;3.22;72.06;101709.22;5108435;28;20381;-79
2020/12/14 08:49:44;;;;;;;17.02;12.73;;;;;;;3.30;71.98;101709.16;5108790;28;20043;-79
2020/12/14 08:52:29;;;;;;;32.63;22.85;;;;;;;3.32;71.54;101710.00;5108096;28;20101;-81
2020/12/14 08:54:56;;;;;;;33.05;20.98;;;;;;;3.31;71.60;101707.41;5108512;28;20051;-75
2020/12/14 08:57:30;;;;;;;25.58;20.02;;;;;;;3.25;71.71;101711.78;5108660;28;20048;-76
2020/12/14 09:00:03;;;;;;;14.20;12.00;;;;;;;3.29;72.02;101706.56;5109740;28;20132;-75
2020/12/14 09:02:30;;;;;;;15.02;12.30;;;;;;;3.34;71.89;101708.25;5109902;28;20043;-78
2020/12/14 09:04:57;;;;;;;24.00;15.90;;;;;;;3.53;73.97;101708.03;5112353;27;20076;-80
2020/12/14 09:07:26;;;;;;;24.90;16.77;;;;;;;3.64;73.02;101708.75;5104696;28;20122;-80
2020/12/14 09:09:53;;;;;;;34.90;19.02;;;;;;;3.68;72.31;101713.06;5114740;27;20050;-82
2020/12/14 09:12:26;;;;;;;39.53;19.23;;;;;;;3.68;72.09;101720.84;5134005;27;20039;-82
2020/12/14 09:15:06;;;;;;;17.52;13.05;;;;;;;3.67;71.92;101723.44;5132726;27;20051;-81
2020/12/14 09:17:33;;;;;;;37.03;19.40;;;;;;;3.69;72.06;101722.53;5124472;27;20211;-83
2020/12/14 09:20:01;;;;;;;17.20;12.95;;;;;;;3.71;72.17;101725.13;5114840;27;20047;-82
2020/12/14 09:22:30;;;;;;;21.08;12.98;;;;;;;3.71;72.09;101725.13;5103406;28;20051;-77
2020/12/14 09:24:57;;;;;;;63.33;31.45;;;;;;;3.70;72.20;101726.84;5110882;27;20126;-81
2020/12/14 09:27:27;;;;;;;33.83;19.30;;;;;;;3.69;72.19;101725.13;5111524;28;20047;-79
2020/12/14 09:29:54;;;;;;;53.22;29.92;;;;;;;3.68;72.47;101730.34;5112020;28;20201;-83
2020/12/14 09:32:21;;;;;;;89.35;41.88;;;;;;;3.67;72.77;101726.91;5110821;28;20047;-78
2020/12/14 09:34:47;;;;;;;30.55;19.95;;;;;;;3.68;72.81;101722.56;5112303;28;20047;-79
2020/12/14 09:37:14;;;;;;;23.73;16.70;;;;;;;3.72;72.78;101727.72;5111338;28;20039;-75
2020/12/14 09:39:41;;;;;;;24.48;17.10;;;;;;;3.78;72.72;101731.09;5111348;28;20046;-78
2020/12/14 09:42:07;;;;;;;25.13;17.48;;;;;;;3.83;72.44;101727.56;5111382;28;20085;-80
2020/12/14 09:44:33;;;;;;;25.92;16.85;;;;;;;3.91;72.68;101730.94;5111174;28;20054;-80
2020/12/14 09:47:01;;;;;;;28.48;15.95;;;;;;;3.95;72.82;101717.91;5111081;28;20396;-75
2020/12/14 09:49:34;;;;;;;35.60;23.70;;;;;;;3.91;73.12;101730.06;5111482;28;20052;-78
2020/12/14 09:52:03;;;;;;;42.35;23.38;;;;;;;3.94;73.02;101732.63;5110301;28;20138;-79
2020/12/14 09:54:30;;;;;;;24.33;15.23;;;;;;;3.99;72.96;101727.38;5112339;28;20105;-78
2020/12/14 09:56:56;;;;;;;30.77;17.65;;;;;;;4.01;73.08;101731.69;5110968;28;20392;-77
2020/12/14 09:59:22;;;;;;;40.80;21.35;;;;;;;4.05;73.29;101732.47;5111371;28;20062;-77
2020/12/14 10:01:48;;;;;;;21.98;14.38;;;;;;;4.07;73.32;101725.53;5110890;28;20120;-77
2020/12/14 10:04:15;;;;;;;36.20;19.58;;;;;;;4.05;73.33;101720.34;5110739;28;20683;-77
2020/12/14 10:06:41;;;;;;;43.97;26.58;;;;;;;4.08;73.36;101722.91;5110725;28;20051;-78
2020/12/14 10:09:09;;;;;;;63.03;29.60;;;;;;;4.07;73.37;101720.34;5110500;28;20047;-74
2020/12/14 10:11:36;;;;;;;37.05;22.08;;;;;;;4.03;73.62;101721.25;5113403;27;20392;-78
2020/12/14 10:14:02;;;;;;;42.85;25.15;;;;;;;4.03;73.92;101722.09;5106749;28;20055;-71
2020/12/14 10:16:29;;;;;;;31.38;19.83;;;;;;;4.16;73.54;101711.56;5110481;28;20044;-66
2020/12/14 10:19:10;;;;;;;37.50;22.20;;;;;;;4.28;73.14;101708.78;5110352;28;20047;-71
2020/12/14 10:21:37;;;;;;;50.30;26.35;;;;;;;4.34;73.18;101716.50;5110958;28;20039;-66
2020/12/14 10:24:03;;;;;;;39.33;23.08;;;;;;;4.32;73.26;101718.25;5110113;28;20047;-66
2020/12/14 10:26:29;;;;;;;25.55;18.10;;;;;;;4.30;73.57;101725.19;5109932;28;20047;-73
2020/12/14 10:28:56;;;;;;;23.60;17.85;;;;;;;4.33;73.69;101716.50;5109448;28;20055;-77
2020/12/14 10:31:22;;;;;;;32.90;19.70;;;;;;;4.46;73.53;101710.25;5110325;28;20555;-74
2020/12/14 10:33:48;;;;;;;27.92;18.35;;;;;;;4.58;73.43;101719.56;5098716;28;20067;-74
2020/12/14 10:36:18;;;;;;;33.33;21.50;;;;;;;4.61;73.42;101716.94;5110113;28;20132;-69
2020/12/14 10:38:46;;;;;;;24.20;17.67;;;;;;;4.72;73.56;101708.97;5110452;28;20047;-73
2020/12/14 10:41:15;;;;;;;73.70;44.35;;;;;;;4.92;73.21;101703.41;5110036;28;20065;-77
2020/12/14 10:43:41;;;;;;;59.65;43.13;;;;;;;4.94;73.13;101706.88;5106913;28;20502;-66
2020/12/14 10:46:07;;;;;;;25.98;19.90;;;;;;;4.93;73.11;101704.25;5110178;28;20070;-68
2020/12/14 10:48:33;;;;;;;23.10;17.23;;;;;;;4.93;73.10;101705.16;5109333;28;20043;-77
2020/12/14 10:50:59;;;;;;;22.10;17.25;;;;;;;5.02;72.97;101704.13;5110166;28;20159;-68
2020/12/14 10:53:25;;;;;;;25.85;20.45;;;;;;;5.11;72.81;101703.09;5109735;28;20501;-71
2020/12/14 10:55:56;;;;;;;27.15;20.15;;;;;;;5.17;73.24;101687.38;5106971;28;20050;-67
2020/12/14 10:58:31;;;;;;;37.85;24.38;;;;;;;5.14;73.24;101692.63;5101362;28;20058;-67
2020/12/14 11:00:58;;;;;;;41.88;28.05;;;;;;;5.16;73.22;101689.09;5109257;28;20109;-67
2020/12/14 11:03:31;;;;;;;52.17;38.28;;;;;;;5.28;73.04;101682.84;5102651;28;20047;-69
2020/12/14 11:05:58;;;;;;;25.55;18.95;;;;;;;5.29;73.20;101673.28;5108654;28;20125;-66
2020/12/14 11:08:24;;;;;;;46.05;32.40;;;;;;;5.32;73.37;101671.47;5109819;28;20067;-69
2020/12/14 11:10:51;;;;;;;39.05;28.33;;;;;;;5.36;73.37;101661.88;5122698;27;20047;-72
2020/12/14 11:13:17;;;;;;;37.47;27.08;;;;;;;5.36;73.59;101667.06;5129765;27;20483;-76
2020/12/14 11:15:43;;;;;;;32.13;23.38;;;;;;;5.33;73.44;101662.78;5130056;27;20043;-76
2020/12/14 11:18:10;;;;;;;23.52;18.55;;;;;;;5.32;73.71;101660.19;5130046;27;20076;-76
2020/12/14 11:20:37;;;;;;;37.20;25.70;;;;;;;5.30;73.68;101665.44;5130318;27;20043;-72
2020/12/14 11:23:03;;;;;;;33.20;24.05;;;;;;;5.28;73.72;101659.41;5129601;27;20412;-76
2020/12/14 11:25:29;;;;;;;30.58;20.70;;;;;;;5.29;73.77;101652.44;5128648;27;20043;-78